createdAt,value
2022-11-17T04:50:57.222Z,14.37
2022-11-17T04:53:26.394Z,13.83
2022-11-17T04:56:00.505Z,13.80
2022-11-17T04:58:30.381Z,12.23
2022-11-17T05:01:12.446Z,14.03
2022-11-17T05:03:45.762Z,14.23
2022-11-17T05:06:18.256Z,14.67
2022-11-17T05:08:47.664Z,13.20
2022-11-17T05:11:35.548Z,16.17
2022-11-17T05:14:04.989Z,16.87
2022-11-17T05:16:51.310Z,13.20
2022-11-17T05:19:22.476Z,14.50
2022-11-17T05:21:52.739Z,15.10
2022-11-17T05:24:21.378Z,14.57
2022-11-17T05:26:51.084Z,13.40
2022-11-17T05:29:21.804Z,15.13
2022-11-17T05:31:50.886Z,14.47
2022-11-17T05:34:20.289Z,15.87
2022-11-17T05:36:48.966Z,13.80
2022-11-17T05:39:19.354Z,14.20
2022-11-17T05:41:48.142Z,14.03
2022-11-17T05:44:18.443Z,12.97
2022-11-17T05:46:46.954Z,15.93
2022-11-17T05:49:15.468Z,14.07
2022-11-17T05:51:47.422Z,14.07
2022-11-17T05:54:20.052Z,14.73
2022-11-17T05:56:54.136Z,14.67
2022-11-17T05:59:28.263Z,15.03
2022-11-17T06:02:05.018Z,14.07
2022-11-17T06:04:35.825Z,20.60
2022-11-17T06:07:04.508Z,14.37
2022-11-17T06:09:37.061Z,13.93
2022-11-17T06:12:06.663Z,12.23
2022-11-17T06:14:38.034Z,15.33
2022-11-17T06:17:10.961Z,16.53
2022-11-17T06:19:44.037Z,15.67
2022-11-17T06:22:13.677Z,14.17
2022-11-17T06:24:46.036Z,13.50
2022-11-17T06:27:18.107Z,17.47
2022-11-17T06:29:47.633Z,14.07
2022-11-17T06:32:19.542Z,14.27
2022-11-17T06:34:55.840Z,14.30
2022-11-17T06:37:25.893Z,12.13
2022-11-17T06:39:56.042Z,13.63
2022-11-17T06:42:45.234Z,10.93
2022-11-17T06:45:15.805Z,15.07
2022-11-17T06:47:44.472Z,14.73
2022-11-17T06:50:13.377Z,11.40
2022-11-17T06:52:42.065Z,12.17
2022-11-17T06:55:12.979Z,11.80
2022-11-17T06:57:41.597Z,11.80
2022-11-17T07:00:11.963Z,12.97
2022-11-17T07:02:40.889Z,12.60
2022-11-17T07:05:10.376Z,13.17
2022-11-17T07:07:39.248Z,10.90
2022-11-17T07:10:08.832Z,13.60
2022-11-17T07:12:39.089Z,11.93
2022-11-17T07:15:09.129Z,12.17
2022-11-17T07:17:38.115Z,13.93
2022-11-17T07:20:08.126Z,12.17
2022-11-17T07:22:37.940Z,14.43
2022-11-17T07:25:11.861Z,13.10
2022-11-17T07:27:42.329Z,14.03
2022-11-17T07:30:13.405Z,12.37
2022-11-17T07:32:42.366Z,11.33
2022-11-17T07:35:11.279Z,11.03
2022-11-17T07:37:40.020Z,13.13
2022-11-17T07:40:11.102Z,14.27
2022-11-17T07:42:39.723Z,13.00
2022-11-17T07:45:12.614Z,13.90
2022-11-17T07:47:41.203Z,12.80
2022-11-17T07:50:10.671Z,12.10
2022-11-17T07:52:41.554Z,12.03
2022-11-17T07:55:10.718Z,12.07
2022-11-17T07:57:42.695Z,12.93
2022-11-17T08:00:15.339Z,11.67
2022-11-17T08:02:44.226Z,9.80
2022-11-17T08:05:19.115Z,13.70
2022-11-17T08:07:56.469Z,11.23
2022-11-17T08:10:31.668Z,12.70
2022-11-17T08:13:02.275Z,11.73
2022-11-17T08:15:33.261Z,11.23
2022-11-17T08:18:03.353Z,10.47
2022-11-17T08:20:36.097Z,12.17
2022-11-17T08:23:04.948Z,11.37
2022-11-17T08:25:33.729Z,10.93
2022-11-17T08:28:02.761Z,18.23
2022-11-17T08:30:35.863Z,13.27
2022-11-17T08:33:04.606Z,13.03
2022-11-17T08:35:37.405Z,13.00
2022-11-17T08:38:07.066Z,11.33
2022-11-17T08:40:39.184Z,11.13
2022-11-17T08:43:09.166Z,12.93
2022-11-17T08:45:39.472Z,11.77
2022-11-17T08:48:08.983Z,13.87
2022-11-17T08:50:37.692Z,11.57
2022-11-17T08:53:06.562Z,10.23
2022-11-17T08:55:41.198Z,11.67
2022-11-17T08:58:12.165Z,14.03
2022-11-17T09:00:42.957Z,10.13
2022-11-17T09:03:12.534Z,12.07
2022-11-17T09:05:43.105Z,12.87
2022-11-17T09:08:44.323Z,12.30
2022-11-17T09:11:07.439Z,12.90
2022-11-17T09:13:36.708Z,14.10
2022-11-17T09:16:09.445Z,13.37
2022-11-17T09:18:39.719Z,13.53
2022-11-17T09:21:10.710Z,15.87
2022-11-17T09:23:39.757Z,15.23
2022-11-17T09:26:10.991Z,12.30
2022-11-17T09:28:39.906Z,14.00
2022-11-17T09:31:11.807Z,14.43
2022-11-17T09:33:40.738Z,15.63
2022-11-17T09:36:10.291Z,14.90
2022-11-17T09:38:41.521Z,17.40
2022-11-17T09:41:25.085Z,14.70
2022-11-17T09:44:04.522Z,15.90
2022-11-17T09:46:47.796Z,17.30
2022-11-17T09:49:30.156Z,18.03
2022-11-17T09:52:02.783Z,17.40
2022-11-17T09:54:40.746Z,16.80
2022-11-17T09:57:20.385Z,18.57
2022-11-17T09:59:58.070Z,16.03
2022-11-17T10:02:28.584Z,18.13
2022-11-17T10:04:57.581Z,16.90
2022-11-17T10:07:26.955Z,18.70
2022-11-17T10:09:57.111Z,16.07
2022-11-17T10:12:33.745Z,18.40
2022-11-17T10:15:21.940Z,21.27
2022-11-17T10:17:52.314Z,20.10
2022-11-17T10:20:21.481Z,16.53
2022-11-17T10:22:51.614Z,16.80
2022-11-17T10:25:37.746Z,18.00
2022-11-17T10:28:08.571Z,20.53
2022-11-17T10:30:37.704Z,16.90
2022-11-17T10:33:07.763Z,16.50
2022-11-17T10:35:37.514Z,19.73
2022-11-17T10:38:14.764Z,18.97
2022-11-17T10:40:50.488Z,18.80
2022-11-17T10:43:24.873Z,15.43
2022-11-17T10:45:56.048Z,16.63
2022-11-17T10:48:32.732Z,16.03
2022-11-17T10:51:03.088Z,17.87
2022-11-17T10:53:41.374Z,18.53
2022-11-17T10:56:18.159Z,15.80
2022-11-17T10:59:03.493Z,20.03
2022-11-17T11:01:35.470Z,17.23
2022-11-17T11:04:07.922Z,14.73
2022-11-17T11:06:37.700Z,14.33
2022-11-17T11:09:12.019Z,16.30
2022-11-17T11:11:45.697Z,14.77
2022-11-17T11:14:21.369Z,15.80
2022-11-17T11:16:51.928Z,16.90
2022-11-17T11:19:22.704Z,17.43
2022-11-17T11:22:23.358Z,19.47
2022-11-17T11:24:59.668Z,14.90
2022-11-17T11:27:51.184Z,18.07
2022-11-17T11:30:21.117Z,22.07
2022-11-17T11:33:04.697Z,15.13
2022-11-17T11:35:53.299Z,14.50
2022-11-17T11:38:43.751Z,14.57
2022-11-17T11:41:35.798Z,14.07
2022-11-17T11:44:28.266Z,15.93
2022-11-17T11:47:03.012Z,15.60
2022-11-17T11:49:38.223Z,15.90
2022-11-17T11:52:16.399Z,12.97
2022-11-17T11:54:52.991Z,14.17
2022-11-17T11:57:30.658Z,13.93
2022-11-17T12:00:04.680Z,12.87
2022-11-17T12:02:43.627Z,16.33
2022-11-17T12:05:22.680Z,15.37
2022-11-17T12:07:59.115Z,14.83
2022-11-17T12:10:33.334Z,13.33
2022-11-17T12:13:04.050Z,14.73
2022-11-17T12:15:38.502Z,13.23
2022-11-17T12:18:13.760Z,12.50
2022-11-17T12:20:59.182Z,19.70
2022-11-17T12:24:00.032Z,13.23
2022-11-17T12:26:31.778Z,18.27
2022-11-17T12:29:33.327Z,14.47
2022-11-17T12:32:04.052Z,12.23
2022-11-17T12:34:36.182Z,14.17
2022-11-17T12:37:26.363Z,13.00
2022-11-17T12:40:00.649Z,13.43
2022-11-17T12:42:32.061Z,11.13
2022-11-17T12:45:05.746Z,13.27
2022-11-17T12:47:36.536Z,14.00
2022-11-17T12:51:00.565Z,13.23
2022-11-17T12:54:14.232Z,13.80
2022-11-17T12:57:06.318Z,14.87
2022-11-17T13:00:08.017Z,14.27
2022-11-17T13:02:59.815Z,12.77
2022-11-17T13:05:30.413Z,12.60
2022-11-17T13:08:27.384Z,12.17
2022-11-17T13:11:07.271Z,12.97
2022-11-17T13:13:37.149Z,14.17
2022-11-17T13:16:13.878Z,12.43
2022-11-17T13:18:44.702Z,18.83
2022-11-17T13:21:30.151Z,12.00
2022-11-17T13:24:00.921Z,12.83
2022-11-17T13:26:37.719Z,12.20
2022-11-17T13:29:13.478Z,12.73
2022-11-17T13:31:43.858Z,12.97
2022-11-17T13:34:18.735Z,12.83
2022-11-17T13:36:54.630Z,11.10
2022-11-17T13:39:27.253Z,12.83
2022-11-17T13:41:57.871Z,12.50
2022-11-17T13:44:29.702Z,12.57
2022-11-17T13:47:20.914Z,12.13
2022-11-17T13:49:49.781Z,10.67
2022-11-17T13:52:37.954Z,11.23
2022-11-17T13:55:17.506Z,12.57
2022-11-17T13:57:56.221Z,12.93
2022-11-17T14:00:25.310Z,11.53
2022-11-17T14:02:56.410Z,12.27
2022-11-17T14:05:27.609Z,13.53
2022-11-17T14:07:58.329Z,13.60
2022-11-17T14:10:33.537Z,12.83
2022-11-17T14:13:22.145Z,12.60
2022-11-17T14:15:59.406Z,15.30
2022-11-17T14:18:34.314Z,13.20
2022-11-17T14:21:21.228Z,14.23
2022-11-17T14:24:05.143Z,13.37
2022-11-17T14:26:44.161Z,12.83
2022-11-17T14:29:23.334Z,12.77
2022-11-17T14:32:04.167Z,14.33
2022-11-17T14:34:35.588Z,14.13
2022-11-17T14:37:07.292Z,12.97
2022-11-17T14:39:39.398Z,13.10
2022-11-17T14:42:08.347Z,12.60
2022-11-17T14:44:37.024Z,12.23
2022-11-17T14:47:05.629Z,11.93
2022-11-17T14:49:36.531Z,11.83
2022-11-17T14:52:05.619Z,12.50
2022-11-17T14:54:34.188Z,11.13
2022-11-17T14:57:03.008Z,14.70
2022-11-17T14:59:31.788Z,11.30
2022-11-17T15:02:01.422Z,12.70
2022-11-17T15:07:20.440Z,14.70
2022-11-17T15:09:49.110Z,14.17
2022-11-17T15:12:17.853Z,17.13
2022-11-17T15:14:48.700Z,13.40
2022-11-17T15:17:17.859Z,11.87
2022-11-17T15:19:46.641Z,13.73
2022-11-17T15:22:15.281Z,16.57
2022-11-17T15:24:46.735Z,13.97
2022-11-17T15:27:16.382Z,17.70
2022-11-17T15:29:45.212Z,13.07
2022-11-17T15:32:13.853Z,17.50
2022-11-17T15:34:42.572Z,17.03
2022-11-17T15:37:11.611Z,17.70
2022-11-17T15:39:40.310Z,17.13
2022-11-17T15:42:10.311Z,17.53
2022-11-17T15:44:38.981Z,18.70
2022-11-17T15:47:07.711Z,22.20
2022-11-17T15:49:37.092Z,19.63
2022-11-17T15:52:06.024Z,18.60
2022-11-17T15:54:34.653Z,21.60
2022-11-17T15:57:03.505Z,22.30
2022-11-17T15:59:34.974Z,21.57
2022-11-17T16:02:10.315Z,21.17
2022-11-17T16:04:40.464Z,22.27
2022-11-17T16:07:09.172Z,25.97
2022-11-17T16:09:37.797Z,28.37
2022-11-17T16:12:27.306Z,26.90
2022-11-17T16:14:57.309Z,27.00
2022-11-17T16:17:26.126Z,29.27
2022-11-17T16:19:56.754Z,29.53
2022-11-17T16:22:25.692Z,28.27
2022-11-17T16:24:54.876Z,31.40
2022-11-17T16:27:23.579Z,32.03
2022-11-17T16:29:52.646Z,32.67
2022-11-17T16:32:22.801Z,31.37
2022-11-17T16:34:52.133Z,33.23
2022-11-17T16:37:21.050Z,32.33
2022-11-17T16:39:49.743Z,34.90
2022-11-17T16:42:18.661Z,31.40
2022-11-17T16:44:47.368Z,32.20
2022-11-17T16:47:17.376Z,32.13
2022-11-17T16:49:51.600Z,37.07
2022-11-17T16:52:21.153Z,36.10
2022-11-17T16:54:49.743Z,33.83
2022-11-17T16:57:19.088Z,39.10
2022-11-17T16:59:48.606Z,32.63
2022-11-17T17:02:18.266Z,37.77
2022-11-17T17:04:48.409Z,35.03
2022-11-17T17:07:17.666Z,34.50
2022-11-17T17:09:46.635Z,34.13
2022-11-17T17:12:16.101Z,34.43
2022-11-17T17:14:44.821Z,33.60
2022-11-17T17:17:13.866Z,38.67
2022-11-17T17:19:42.592Z,31.80
2022-11-17T17:22:14.519Z,33.37
2022-11-17T17:24:44.844Z,34.57
2022-11-17T17:27:13.498Z,30.97
2022-11-17T17:29:42.203Z,34.77
2022-11-17T17:32:10.952Z,32.60
2022-11-17T17:34:39.701Z,34.70
2022-11-17T17:37:09.054Z,34.23
2022-11-17T17:39:39.469Z,36.07
2022-11-17T17:42:08.160Z,37.43
2022-11-17T17:44:36.851Z,39.70
2022-11-17T17:47:06.788Z,38.07
2022-11-17T17:49:39.058Z,35.33
2022-11-17T17:52:13.539Z,40.57
2022-11-17T17:54:44.562Z,39.87
2022-11-17T17:57:13.696Z,40.77
2022-11-17T17:59:42.609Z,36.43
2022-11-17T18:02:11.695Z,42.30
2022-11-17T18:04:40.862Z,37.67
2022-11-17T18:07:10.020Z,44.03
2022-11-17T18:09:38.883Z,38.73
2022-11-17T18:12:09.579Z,43.20
2022-11-17T18:14:38.004Z,41.17
2022-11-17T18:17:06.847Z,43.63
2022-11-17T18:19:35.840Z,41.57
2022-11-17T18:22:04.454Z,45.30
2022-11-17T18:24:33.148Z,40.80
2022-11-17T18:27:01.674Z,55.77
2022-11-17T18:29:32.159Z,47.13
2022-11-17T18:32:01.078Z,46.93
2022-11-17T18:34:29.667Z,46.77
2022-11-17T18:36:58.257Z,43.10
2022-11-17T18:39:28.555Z,41.97
2022-11-17T18:41:57.541Z,43.40
2022-11-17T18:44:26.165Z,46.50
2022-11-17T18:47:02.332Z,46.73
2022-11-17T18:49:32.015Z,48.57
2022-11-17T18:52:00.696Z,54.53
2022-11-17T18:54:30.244Z,47.50
2022-11-17T18:57:01.857Z,47.70
2022-11-17T18:59:30.400Z,46.90
2022-11-17T19:02:00.311Z,51.17
2022-11-17T19:04:29.715Z,47.57
2022-11-17T19:06:59.152Z,47.00
2022-11-17T19:09:27.724Z,46.77
2022-11-17T19:11:56.540Z,49.30
2022-11-17T19:14:25.143Z,48.87
2022-11-17T19:16:55.215Z,51.47
2022-11-17T19:19:25.225Z,48.73
2022-11-17T19:21:53.807Z,51.90
2022-11-17T19:24:23.248Z,51.73
2022-11-17T19:26:51.960Z,55.97
2022-11-17T19:29:21.344Z,51.17
2022-11-17T19:31:51.361Z,49.17
2022-11-17T19:34:19.780Z,49.67
2022-11-17T19:36:50.060Z,50.60
2022-11-17T19:39:19.097Z,48.00
2022-11-17T19:41:47.963Z,52.33
2022-11-17T19:44:16.557Z,46.20
2022-11-17T19:46:45.506Z,50.03
2022-11-17T19:49:14.426Z,51.60
2022-11-17T19:51:43.209Z,47.77
2022-11-17T19:54:14.985Z,52.70
2022-11-17T19:56:43.561Z,48.70
2022-11-17T19:59:15.944Z,50.60
2022-11-17T20:01:46.495Z,47.80
2022-11-17T20:04:15.139Z,49.30
2022-11-17T20:06:43.741Z,49.70
2022-11-17T20:09:16.278Z,43.70
2022-11-17T20:11:45.622Z,47.40
2022-11-17T20:14:14.634Z,46.83
2022-11-17T20:16:43.341Z,45.53
2022-11-17T20:19:13.943Z,48.70
2022-11-17T20:21:42.596Z,44.80
2022-11-17T20:24:11.352Z,52.37
2022-11-17T20:26:44.375Z,51.37
2022-11-17T20:29:13.063Z,52.33
2022-11-17T20:31:42.306Z,51.50
2022-11-17T20:34:14.219Z,52.47
2022-11-17T20:36:42.706Z,51.20
2022-11-17T20:39:14.308Z,50.83
2022-11-17T20:41:44.515Z,54.40
2022-11-17T20:44:25.038Z,54.33
2022-11-17T20:46:59.891Z,49.93
2022-11-17T20:49:31.266Z,54.20
2022-11-17T20:52:00.306Z,51.13
2022-11-17T20:54:28.794Z,54.00
2022-11-17T20:56:59.027Z,49.10
2022-11-17T20:59:27.907Z,53.17
2022-11-17T21:01:56.549Z,49.70
2022-11-17T21:04:25.252Z,53.50
2022-11-17T21:06:54.294Z,50.93
2022-11-17T21:09:25.248Z,58.43
2022-11-17T21:12:00.485Z,48.30
2022-11-17T21:14:32.369Z,55.90
2022-11-17T21:17:04.547Z,53.77
2022-11-17T21:19:38.777Z,55.70
2022-11-17T21:22:09.029Z,53.50
2022-11-17T21:24:37.599Z,52.37
2022-11-17T21:27:06.664Z,54.87
2022-11-17T21:29:36.796Z,52.93
2022-11-17T21:32:06.639Z,55.53
2022-11-17T21:34:35.327Z,52.40
2022-11-17T21:37:04.010Z,50.83
2022-11-17T21:39:35.438Z,55.07
2022-11-17T21:42:04.338Z,54.83
2022-11-17T21:44:33.337Z,51.30
2022-11-17T21:47:03.387Z,55.67
2022-11-17T21:49:32.265Z,55.33
2022-11-17T21:52:00.999Z,48.10
2022-11-17T21:54:29.689Z,50.67
2022-11-17T21:56:58.770Z,50.67
2022-11-17T21:59:27.531Z,51.90
2022-11-17T22:01:56.411Z,48.33
2022-11-17T22:04:27.426Z,48.47
2022-11-17T22:06:56.090Z,53.20
2022-11-17T22:09:26.909Z,48.23
2022-11-17T22:11:55.907Z,48.90
2022-11-17T22:14:25.361Z,46.30
2022-11-17T22:16:57.787Z,44.00
2022-11-17T22:19:29.641Z,45.30
2022-11-17T22:21:58.218Z,45.00
2022-11-17T22:24:32.826Z,44.70
2022-11-17T22:27:01.728Z,39.13
2022-11-17T22:29:30.362Z,47.50
2022-11-17T22:31:59.032Z,42.73
2022-11-17T22:34:28.962Z,45.70
2022-11-17T22:36:57.764Z,42.60
2022-11-17T22:39:26.444Z,42.27
2022-11-17T22:41:54.986Z,44.27
2022-11-17T22:44:23.588Z,45.03
2022-11-17T22:46:52.331Z,45.43
2022-11-17T22:49:21.143Z,38.10
2022-11-17T22:52:07.898Z,39.93
2022-11-17T22:54:36.606Z,40.33
2022-11-17T22:57:05.526Z,41.70
2022-11-17T22:59:34.805Z,39.43
2022-11-17T23:02:05.780Z,36.43
2022-11-17T23:04:34.429Z,40.07
2022-11-17T23:07:05.809Z,36.27
2022-11-17T23:09:34.508Z,34.60
2022-11-17T23:12:03.009Z,36.30
2022-11-17T23:14:31.523Z,39.07
2022-11-17T23:17:00.005Z,35.40
2022-11-17T23:19:30.122Z,32.40
2022-11-17T23:21:58.973Z,35.77
2022-11-17T23:24:31.966Z,33.90
2022-11-17T23:27:00.717Z,33.03
2022-11-17T23:29:29.943Z,33.47
2022-11-17T23:31:58.540Z,32.67
2022-11-17T23:34:28.089Z,36.10
2022-11-17T23:37:02.330Z,34.23
2022-11-17T23:39:34.007Z,39.10
2022-11-17T23:42:02.771Z,35.17
2022-11-17T23:44:31.650Z,30.60
2022-11-17T23:47:00.569Z,35.33
2022-11-17T23:49:30.472Z,35.67
